Terminal Aerodrome Forecast
Issued by NWS Wichita, KS

Home | Current Version | Previous Version | Text Only | Print | Product List | Glossary Off
Versions: 1 2 3 4 5 6 7 8 9 10 11 12 13 14 15 16 17 18 19 20 21 22 23

000
FTUS43 KICT 240815 AAA
TAFICT
TAF AMD
KICT 240815Z 2408/2506 16012KT P6SM SCT008 OVC015
     FM241000 16012KT 6SM -DZ BR SCT005 OVC008
     FM241200 17015KT 4SM -DZ BR OVC005
     FM241500 17016G23KT P6SM SCT005 BKN008
     FM241700 18019G27KT P6SM BKN015
     FM241900 18023G31KT P6SM BKN030=

USA.gov is the U.S. government's official web portal to all federal, state and local government web resources and services.